.
WxDataArchive / Data Records for 2012-03-05
2012-03-04 March 2012 2012-03-06

Data Records for Monday, 05 March 2012

Time	Temp	Chill	HIndex	Humid	Dewpt	 Wind 	HiWind	WindDir	Rain 	Barom 
-----	----	-----	------	-----	-----	------	------	-------	-----	----- 
00:00	24.7	24.7	24.7	86	21.1	0	0	---	0.00	29.903 
00:05	24.7	24.7	24.7	86	21.1	0	0	---	0.00	29.903 
00:10	24.8	24.8	24.8	86	21.2	0	0	---	0.00	29.903 
00:15	24.8	24.8	24.8	87	21.5	0	0	---	0.00	29.905 
00:20	24.8	24.8	24.8	87	21.5	0	0	---	0.00	29.905 
00:25	24.8	24.8	24.8	87	21.5	0	0	---	0.00	29.905 
00:30	24.8	24.8	24.8	87	21.5	0	0	---	0.00	29.905 
00:35	24.8	24.8	24.8	87	21.5	0	0	---	0.00	29.905 
00:40	24.8	24.8	24.8	87	21.5	0	0	---	0.00	29.905 
00:45	25.0	25.0	25.0	87	21.7	0	0	---	0.00	29.903 
00:50	25.0	25.0	25.0	87	21.7	0	0	---	0.00	29.903 
00:55	25.1	25.1	25.1	87	21.8	0	0	---	0.00	29.903 
01:00	25.1	25.1	25.1	87	21.8	0	0	---	0.00	29.906 
01:05	25.1	25.1	25.1	87	21.8	0	0	---	0.00	29.906 
01:10	25.4	25.4	25.4	87	22.1	0	0	---	0.00	29.906 
01:15	25.6	25.6	25.6	87	22.3	0	0	---	0.00	29.916 
01:20	25.7	25.7	25.7	87	22.4	0	0	---	0.00	29.916 
01:25	26.1	26.1	26.1	86	22.5	0	1	292	0.00	29.916 
01:30	26.6	26.6	26.6	85	22.7	0	1	292	0.00	29.917 
01:35	27.0	27.0	27.0	84	22.8	1	3	292	0.00	29.917 
01:40	27.3	27.3	27.3	83	22.8	0	2	292	0.00	29.917 
01:45	27.6	27.6	27.6	82	22.8	0	1	292	0.00	29.919 
01:50	27.8	27.8	27.8	81	22.7	0	1	292	0.00	29.919 
01:55	27.9	27.9	27.9	81	22.8	0	1	292	0.00	29.919 
02:00	28.1	28.1	28.1	80	22.7	0	0	---	0.00	29.927 
02:05	28.2	28.2	28.2	80	22.8	0	2	292	0.00	29.927 
02:10	28.2	28.2	28.2	80	22.8	0	2	292	0.00	29.927 
02:15	28.4	28.4	28.4	80	23.0	0	2	292	0.00	29.931 
02:20	28.4	28.4	28.4	80	23.0	0	2	292	0.00	29.931 
02:25	28.5	28.5	28.5	80	23.1	0	2	292	0.00	29.931 
02:30	28.5	28.5	28.5	80	23.1	1	4	292	0.00	29.939 
02:35	28.5	28.5	28.5	80	23.1	1	2	338	0.00	29.939 
02:40	28.4	28.4	28.4	80	23.0	1	3	0	0.00	29.939 
02:45	28.4	28.4	28.4	79	22.7	0	3	315	0.00	29.947 
02:50	28.4	28.4	28.4	79	22.7	1	5	338	0.00	29.947 
02:55	28.4	28.4	28.4	79	22.7	1	4	22	0.00	29.947 
03:00	28.4	28.4	28.4	79	22.7	1	3	315	0.00	29.954 
03:05	28.4	28.4	28.4	79	22.7	1	3	22	0.00	29.954 
03:10	28.4	28.4	28.4	80	23.0	1	3	0	0.00	29.954 
03:15	28.2	28.2	28.2	80	22.8	1	4	270	0.00	29.961 
03:20	28.1	28.1	28.1	80	22.7	1	3	270	0.00	29.961 
03:25	27.9	27.9	27.9	78	21.9	1	4	338	0.00	29.961 
03:30	27.9	27.9	27.9	78	21.9	0	2	292	0.00	29.971 
03:35	27.9	27.9	27.9	78	21.9	1	4	292	0.00	29.971 
03:40	27.6	27.6	27.6	78	21.7	2	7	292	0.00	29.971 
03:45	27.5	27.5	27.5	78	21.6	1	4	315	0.00	29.981 
03:50	27.2	27.2	27.2	78	21.3	2	5	315	0.00	29.981 
03:55	27.0	27.0	27.0	78	21.1	1	5	270	0.00	29.981 
04:00	27.0	27.0	27.0	78	21.1	1	4	315	0.00	29.996 
04:05	26.9	26.9	26.9	78	21.0	1	4	315	0.00	29.996 
04:10	26.7	26.7	26.7	78	20.8	2	6	315	0.00	29.996 
04:15	26.6	26.6	26.6	77	20.4	2	6	315	0.00	30.010 
04:20	26.6	26.6	26.6	77	20.4	1	4	0	0.00	30.010 
04:25	26.6	26.6	26.6	78	20.7	1	4	338	0.00	30.010 
04:30	26.6	26.6	26.6	78	20.7	1	4	270	0.00	30.021 
04:35	26.4	26.4	26.4	77	20.2	1	4	0	0.00	30.021 
04:40	26.4	26.4	26.4	77	20.2	1	5	338	0.00	30.021 
04:45	26.3	26.3	26.3	76	19.8	1	3	315	0.00	30.029 
04:50	26.3	26.3	26.3	76	19.8	1	4	292	0.00	30.029 
04:55	26.3	26.3	26.3	75	19.5	1	4	315	0.00	30.029 
05:00	26.1	26.1	26.1	76	19.6	0	2	22	0.00	30.046 
05:05	26.1	26.1	26.1	76	19.6	1	3	270	0.00	30.046 
05:10	26.1	26.1	26.1	76	19.6	0	2	292	0.00	30.046 
05:15	26.1	26.1	26.1	76	19.6	1	4	270	0.00	30.061 
05:20	26.1	26.1	26.1	76	19.6	1	4	270	0.00	30.061 
05:25	26.1	26.1	26.1	76	19.6	1	2	270	0.00	30.061 
05:30	26.1	26.1	26.1	75	19.3	1	4	292	0.00	30.075 
05:35	26.0	26.0	26.0	74	18.9	1	3	292	0.00	30.075 
05:40	25.8	25.8	25.8	74	18.7	1	3	315	0.00	30.075 
05:45	25.8	25.8	25.8	74	18.7	1	3	270	0.00	30.084 
05:50	25.7	25.7	25.7	74	18.6	1	2	270	0.00	30.084 
05:55	25.6	25.6	25.6	73	18.2	1	3	270	0.00	30.084 
06:00	25.4	25.4	25.4	72	17.7	1	3	338	0.00	30.101 
06:05	25.1	25.1	25.1	71	17.0	2	4	270	0.00	30.101 
06:10	24.8	24.8	24.8	70	16.4	2	4	270	0.00	30.101 
06:15	24.5	24.5	24.5	70	16.1	2	5	292	0.00	30.117 
06:20	24.2	24.2	24.2	71	16.2	2	7	270	0.00	30.117 
06:25	24.1	24.1	24.1	71	16.1	1	3	315	0.00	30.117 
06:30	23.9	23.9	23.9	71	15.9	2	4	315	0.00	30.129 
06:35	23.8	23.8	23.8	72	16.1	0	2	270	0.00	30.129 
06:40	23.6	23.6	23.6	72	15.9	1	3	338	0.00	30.129 
06:45	23.5	23.5	23.5	73	16.1	0	2	0	0.00	30.139 
06:50	23.5	23.5	23.5	73	16.1	0	2	315	0.00	30.139 
06:55	23.5	23.5	23.5	73	16.1	1	2	315	0.00	30.139 
07:00	23.6	23.6	23.6	74	16.6	0	1	315	0.00	30.150 
07:05	23.6	23.6	23.6	74	16.6	0	2	315	0.00	30.150 
07:10	23.8	23.8	23.8	75	17.1	0	2	315	0.00	30.150 
07:15	23.8	23.8	23.8	75	17.1	0	2	315	0.00	30.160 
07:20	23.9	23.9	23.9	75	17.2	0	1	315	0.00	30.160 
07:25	23.9	23.9	23.9	75	17.2	0	1	315	0.00	30.160 
07:30	23.9	23.9	23.9	74	16.8	0	2	315	0.00	30.173 
07:35	23.9	23.9	23.9	74	16.8	0	1	315	0.00	30.173 
07:40	24.1	24.1	24.1	74	17.0	0	2	315	0.00	30.173 
07:45	24.1	24.1	24.1	74	17.0	0	2	315	0.00	30.187 
07:50	24.1	24.1	24.1	73	16.7	0	2	315	0.00	30.187 
07:55	24.1	24.1	24.1	73	16.7	1	2	315	0.00	30.187 
08:00	24.2	24.2	24.2	72	16.5	1	2	315	0.00	30.203 
08:05	24.5	24.5	24.5	71	16.5	2	4	248	0.00	30.203 
08:10	24.7	24.7	24.7	70	16.3	1	3	248	0.00	30.203 
08:15	25.0	25.0	25.0	69	16.3	1	3	248	0.00	30.214 
08:20	25.1	25.1	25.1	68	16.1	1	2	292	0.00	30.214 
08:25	25.3	25.3	25.3	66	15.6	1	4	338	0.00	30.214 
08:30	25.3	25.3	25.3	65	15.2	2	4	270	0.00	30.226 
08:35	25.4	25.4	25.4	64	14.9	1	4	270	0.00	30.226 
08:40	25.6	25.6	25.6	63	14.8	1	4	292	0.00	30.226 
08:45	25.8	25.8	25.8	63	15.0	1	3	292	0.00	30.239 
08:50	25.8	25.8	25.8	61	14.2	1	4	338	0.00	30.239 
08:55	26.0	26.0	26.0	60	14.0	1	4	270	0.00	30.239 
09:00	26.3	26.3	26.3	60	14.3	1	3	338	0.00	30.250 
09:05	26.4	26.4	26.4	58	13.7	1	5	315	0.00	30.250 
09:10	26.6	26.6	26.6	57	13.4	1	3	338	0.00	30.250 
09:15	26.9	26.9	26.9	56	13.3	1	4	270	0.00	30.255 
09:20	27.0	27.0	27.0	55	13.0	1	5	338	0.00	30.255 
09:25	27.5	27.5	27.5	55	13.5	1	5	338	0.00	30.255 
09:30	27.6	27.6	27.6	53	12.7	2	5	270	0.00	30.256 
09:35	27.5	27.5	27.5	52	12.2	2	5	270	0.00	30.256 
09:40	27.8	27.8	27.8	53	12.9	1	4	270	0.00	30.256 
09:45	27.8	27.8	27.8	50	11.6	2	5	0	0.00	30.268 
09:50	27.8	27.8	27.8	50	11.6	2	4	270	0.00	30.268 
09:55	28.1	28.1	28.1	51	12.3	2	6	270	0.00	30.268 
10:00	28.4	28.4	28.4	50	12.2	2	5	270	0.00	30.275 
10:05	28.5	28.5	28.5	50	12.3	2	6	315	0.00	30.275 
10:10	28.8	28.8	28.8	51	13.0	1	5	270	0.00	30.275 
10:15	28.8	28.8	28.8	50	12.5	2	4	292	0.00	30.285 
10:20	28.8	28.8	28.8	51	13.0	1	5	292	0.00	30.285 
10:25	29.4	29.4	29.4	52	14.0	1	5	270	0.00	30.285 
10:30	29.7	29.7	29.7	50	13.4	2	5	292	0.00	30.287 
10:35	29.1	29.1	29.1	50	12.8	2	7	338	0.00	30.287 
10:40	29.1	29.1	29.1	51	13.3	2	5	270	0.00	30.287 
10:45	29.3	29.3	29.3	52	13.9	1	4	270	0.00	30.300 
10:50	30.0	30.0	30.0	52	14.5	2	6	270	0.00	30.300 
10:55	30.4	30.4	30.4	50	14.0	2	4	338	0.00	30.300 
11:00	30.1	30.1	30.1	51	14.2	2	5	315	0.00	30.311 
11:05	30.0	30.0	30.0	50	13.6	3	10	315	0.00	30.311 
11:10	29.5	29.5	29.5	50	13.2	2	7	270	0.00	30.311 
11:15	29.3	29.3	29.3	51	13.4	2	4	0	0.00	30.317 
11:20	29.5	29.5	29.5	51	13.6	2	7	315	0.00	30.317 
11:25	29.4	29.4	29.4	52	14.0	2	4	270	0.00	30.317 
11:30	29.5	29.5	29.5	52	14.1	1	4	270	0.00	30.323 
11:35	30.0	30.0	30.0	53	15.0	1	3	248	0.00	30.323 
11:40	30.7	30.7	30.7	53	15.6	1	4	270	0.00	30.323 
11:45	30.7	30.7	30.7	51	14.7	3	4	248	0.00	30.327 
11:50	30.7	30.7	30.7	52	15.2	1	5	315	0.00	30.327 
11:55	31.3	31.3	31.3	52	15.7	2	7	315	0.00	30.327 
12:00	31.2	31.2	31.2	50	14.8	2	6	292	0.00	30.336 
12:05	30.6	30.6	30.6	51	14.6	2	7	338	0.00	30.336 
12:10	30.3	30.3	30.3	51	14.4	2	6	315	0.00	30.336 
12:15	30.4	30.4	30.4	51	14.5	2	5	338	0.00	30.340 
12:20	30.7	30.7	30.7	52	15.2	2	4	248	0.00	30.340 
12:25	31.2	31.2	31.2	53	16.1	2	5	270	0.00	30.340 
12:30	30.9	30.9	30.9	51	14.9	2	4	270	0.00	30.348 
12:35	30.6	30.6	30.6	52	15.1	2	6	270	0.00	30.348 
12:40	30.3	30.3	30.3	53	15.2	2	4	270	0.00	30.348 
12:45	30.7	30.7	30.7	54	16.0	2	4	248	0.00	30.354 
12:50	31.0	31.0	31.0	52	15.5	2	5	0	0.00	30.354 
12:55	30.6	30.6	30.6	53	15.5	2	5	315	0.00	30.354 
13:00	30.4	30.4	30.4	53	15.3	3	6	270	0.00	30.365 
13:05	30.4	30.4	30.4	54	15.8	2	5	270	0.00	30.365 
13:10	30.4	30.4	30.4	53	15.3	2	6	270	0.00	30.365 
13:15	30.4	30.4	30.4	54	15.8	2	5	270	0.00	30.361 
13:20	30.4	30.4	30.4	53	15.3	3	7	270	0.00	30.361 
13:25	30.6	30.6	30.6	54	16.0	2	5	338	0.00	30.361 
13:30	30.6	30.6	30.6	53	15.5	2	5	315	0.00	30.363 
13:35	30.9	30.9	30.9	54	16.2	1	3	292	0.00	30.363 
13:40	31.2	31.2	31.2	55	16.9	1	4	270	0.00	30.363 
13:45	31.0	31.0	31.0	54	16.3	2	5	292	0.00	30.363 
13:50	30.9	30.9	30.9	54	16.2	2	5	248	0.00	30.363 
13:55	30.9	30.9	30.9	55	16.7	2	5	270	0.00	30.363 
14:00	31.3	31.3	31.3	54	16.6	2	4	248	0.00	30.364 
14:05	31.3	31.3	31.3	54	16.6	3	5	270	0.00	30.364 
14:10	31.2	31.2	31.2	52	15.6	2	4	292	0.00	30.364 
14:15	31.3	31.3	31.3	54	16.6	1	5	248	0.00	30.362 
14:20	31.9	31.9	31.9	54	17.2	2	4	248	0.00	30.362 
14:25	31.8	31.8	31.8	51	15.8	2	5	270	0.00	30.362 
14:30	31.5	31.5	31.5	52	15.9	2	6	270	0.00	30.361 
14:35	31.5	31.5	31.5	53	16.4	2	4	270	0.00	30.361 
14:40	31.6	31.6	31.6	53	16.5	2	4	270	0.00	30.361 
14:45	31.6	31.6	31.6	53	16.5	2	4	270	0.00	30.361 
14:50	31.6	31.6	31.6	53	16.5	2	3	270	0.00	30.361 
14:55	31.6	31.6	31.6	53	16.5	1	3	315	0.00	30.361 
15:00	31.8	31.8	31.8	54	17.1	1	3	248	0.00	30.369 
15:05	31.8	31.8	31.8	53	16.6	2	4	248	0.00	30.369 
15:10	31.6	31.6	31.6	54	16.9	1	3	270	0.00	30.369 
15:15	31.6	31.6	31.6	52	16.0	2	6	315	0.00	30.377 
15:20	31.9	31.9	31.9	52	16.3	2	4	292	0.00	30.377 
15:25	32.1	32.1	32.1	50	15.6	1	4	292	0.00	30.377 
15:30	32.1	32.1	32.1	50	15.6	2	5	270	0.00	30.383 
15:35	32.1	32.1	32.1	51	16.0	1	5	270	0.00	30.383 
15:40	32.2	32.2	32.2	51	16.1	1	3	292	0.00	30.383 
15:45	32.2	32.2	32.2	53	17.0	2	5	270	0.00	30.389 
15:50	32.5	32.5	32.5	51	16.4	2	6	248	0.00	30.389 
15:55	32.5	32.5	32.5	50	16.0	1	4	270	0.00	30.389 
16:00	32.5	32.5	32.5	52	16.9	1	2	292	0.00	30.390 
16:05	32.5	32.5	32.5	51	16.4	2	6	315	0.00	30.390 
16:10	32.4	32.4	32.4	50	15.9	2	4	315	0.00	30.390 
16:15	32.4	32.4	32.4	50	15.9	1	9	292	0.00	30.393 
16:20	32.2	32.2	32.2	51	16.1	2	5	315	0.00	30.393 
16:25	31.9	31.9	31.9	51	15.9	1	4	338	0.00	30.393 
16:30	31.9	31.9	31.9	52	16.3	1	5	338	0.00	30.392 
16:35	32.2	32.2	32.2	51	16.1	1	4	292	0.00	30.392 
16:40	31.9	31.9	31.9	51	15.9	2	4	315	0.00	30.392 
16:45	31.8	31.8	31.8	52	16.2	1	4	315	0.00	30.392 
16:50	31.8	31.8	31.8	52	16.2	1	3	248	0.00	30.392 
16:55	31.8	31.8	31.8	53	16.6	1	4	338	0.00	30.392 
17:00	31.8	31.8	31.8	53	16.6	1	3	292	0.00	30.396 
17:05	31.8	31.8	31.8	52	16.2	1	3	292	0.00	30.396 
17:10	31.8	31.8	31.8	52	16.2	1	2	292	0.00	30.396 
17:15	32.1	32.1	32.1	52	16.5	1	2	292	0.00	30.400 
17:20	32.4	32.4	32.4	50	15.9	1	4	292	0.00	30.400 
17:25	32.5	32.5	32.5	49	15.5	2	5	292	0.00	30.400 
17:30	32.5	32.5	32.5	49	15.5	2	4	248	0.00	30.404 
17:35	32.7	32.7	32.7	49	15.7	1	2	248	0.00	30.404 
17:40	32.2	32.2	32.2	50	15.7	1	3	315	0.00	30.404 
17:45	32.2	32.2	32.2	51	16.1	1	3	270	0.00	30.404 
17:50	32.2	32.2	32.2	50	15.7	1	2	270	0.00	30.404 
17:55	31.9	31.9	31.9	51	15.9	0	1	270	0.00	30.404 
18:00	31.6	31.6	31.6	51	15.6	0	2	270	0.00	30.409 
18:05	31.3	31.3	31.3	51	15.3	0	1	270	0.00	30.409 
18:10	31.2	31.2	31.2	52	15.6	0	1	270	0.00	30.409 
18:15	31.0	31.0	31.0	53	15.9	0	1	270	0.00	30.412 
18:20	31.0	31.0	31.0	53	15.9	0	1	270	0.00	30.412 
18:25	30.9	30.9	30.9	54	16.2	0	0	---	0.00	30.412 
18:30	30.7	30.7	30.7	54	16.0	0	1	270	0.00	30.412 
18:35	30.6	30.6	30.6	54	16.0	0	0	---	0.00	30.412 
18:40	30.3	30.3	30.3	54	15.7	0	0	---	0.00	30.412 
18:45	30.1	30.1	30.1	54	15.5	0	0	---	0.00	30.410 
18:50	29.8	29.8	29.8	54	15.2	0	0	---	0.00	30.410 
18:55	29.5	29.5	29.5	56	15.8	0	0	---	0.00	30.410 
19:00	29.3	29.3	29.3	57	16.0	0	0	---	0.00	30.409 
19:05	29.0	29.0	29.0	57	15.7	0	0	---	0.00	30.409 
19:10	28.8	28.8	28.8	58	15.9	0	0	---	0.00	30.409 
19:15	28.5	28.5	28.5	59	16.0	0	0	---	0.00	30.413 
19:20	28.4	28.4	28.4	60	16.3	0	0	---	0.00	30.413 
19:25	28.1	28.1	28.1	61	16.4	0	0	---	0.00	30.413 
19:30	27.9	27.9	27.9	61	16.2	0	0	---	0.00	30.411 
19:35	27.8	27.8	27.8	61	16.1	0	0	---	0.00	30.411 
19:40	27.6	27.6	27.6	62	16.3	0	0	---	0.00	30.411 
19:45	27.5	27.5	27.5	62	16.2	0	0	---	0.00	30.400 
19:50	27.5	27.5	27.5	63	16.6	0	0	---	0.00	30.400 
19:55	27.5	27.5	27.5	64	16.9	0	0	---	0.00	30.400 
20:00	27.5	27.5	27.5	64	16.9	0	0	---	0.00	30.405 
20:05	27.6	27.6	27.6	64	17.0	0	0	---	0.00	30.405 
20:10	27.6	27.6	27.6	65	17.4	0	0	---	0.00	30.405 
20:15	27.8	27.8	27.8	65	17.6	0	0	---	0.00	30.403 
20:20	27.9	27.9	27.9	65	17.7	0	0	---	0.00	30.403 
20:25	28.2	28.2	28.2	65	18.0	0	1	270	0.00	30.403 
20:30	28.2	28.2	28.2	65	18.0	0	0	---	0.00	30.401 
20:35	28.2	28.2	28.2	64	17.6	0	1	270	0.00	30.401 
20:40	28.4	28.4	28.4	64	17.8	0	1	270	0.00	30.401 
20:45	28.4	28.4	28.4	64	17.8	0	1	270	0.00	30.393 
20:50	28.4	28.4	28.4	64	17.8	0	1	270	0.00	30.393 
20:55	28.4	28.4	28.4	64	17.8	0	0	---	0.00	30.393 
21:00	28.2	28.2	28.2	64	17.6	0	0	---	0.00	30.401 
21:05	28.1	28.1	28.1	65	17.9	0	0	---	0.00	30.401 
21:10	27.9	27.9	27.9	65	17.7	0	0	---	0.00	30.401 
21:15	27.8	27.8	27.8	65	17.6	0	0	---	0.00	30.409 
21:20	27.8	27.8	27.8	66	17.9	0	1	270	0.00	30.409 
21:25	27.8	27.8	27.8	66	17.9	0	2	270	0.00	30.409 
21:30	27.9	27.9	27.9	66	18.0	0	2	270	0.00	30.396 
21:35	28.2	28.2	28.2	66	18.3	0	3	270	0.00	30.396 
21:40	28.5	28.5	28.5	65	18.3	0	2	270	0.00	30.396 
21:45	28.8	28.8	28.8	66	18.9	0	2	270	0.00	30.410 
21:50	29.0	29.0	29.0	66	19.1	0	1	270	0.00	30.410 
21:55	29.1	29.1	29.1	65	18.8	0	1	270	0.00	30.410 
22:00	29.1	29.1	29.1	65	18.8	0	2	270	0.00	30.410 
22:05	29.3	29.3	29.3	65	19.0	0	1	270	0.00	30.410 
22:10	29.4	29.4	29.4	65	19.1	0	1	270	0.00	30.410 
22:15	29.5	29.5	29.5	65	19.2	0	2	270	0.00	30.408 
22:20	29.5	29.5	29.5	65	19.2	0	2	270	0.00	30.408 
22:25	29.7	29.7	29.7	65	19.4	0	2	270	0.00	30.408 
22:30	29.7	29.7	29.7	65	19.4	0	2	270	0.00	30.413 
22:35	29.7	29.7	29.7	65	19.4	0	1	270	0.00	30.413 
22:40	29.7	29.7	29.7	65	19.4	0	1	270	0.00	30.413 
22:45	29.7	29.7	29.7	65	19.4	0	2	270	0.00	30.417 
22:50	29.7	29.7	29.7	66	19.8	0	1	270	0.00	30.417 
22:55	29.7	29.7	29.7	66	19.8	0	1	270	0.00	30.417 
23:00	29.7	29.7	29.7	66	19.8	0	1	270	0.00	30.415 
23:05	29.7	29.7	29.7	66	19.8	0	2	270	0.00	30.415 
23:10	29.7	29.7	29.7	67	20.1	0	2	270	0.00	30.415 
23:15	29.7	29.7	29.7	67	20.1	0	1	270	0.00	30.414 
23:20	29.7	29.7	29.7	67	20.1	0	1	270	0.00	30.414 
23:25	29.7	29.7	29.7	68	20.5	0	0	---	0.00	30.414 
23:30	29.5	29.5	29.5	68	20.3	0	1	270	0.00	30.412 
23:35	29.5	29.5	29.5	69	20.6	0	1	270	0.00	30.412 
23:40	29.4	29.4	29.4	69	20.5	0	1	270	0.00	30.412 
23:45	29.4	29.4	29.4	69	20.5	0	1	270	0.00	30.407 
23:50	29.3	29.3	29.3	69	20.4	0	1	270	0.00	30.407 
23:55	29.3	29.3	29.3	69	20.4	0	1	270	0.00	30.407 

CoCoRaHS
IN-AL-39
A2 Web Hosting
Creative Commons License
GoDaddy
search engine by freefind advanced

loaded 2018-11-15 03:49:39 • last modified 2010-11-18 10:43:29
Privacy PolicyDisclaimer
• wx.awcolley.com is powered by PmWiki v.2002016 •
• all content (unless otherwise noted) © 2018 A W Colley